sensor_id;sensor_type;location;lat;lon;timestamp;pressure;altitude;pressure_sealevel;temperature;humidity
12801;BME280;6464;42.494;27.470;2023-11-21T00:02:04;98896.69;;;5.79;100.00
12801;BME280;6464;42.494;27.470;2023-11-21T00:04:32;98768.94;;;5.05;100.00
12801;BME280;6464;42.494;27.470;2023-11-21T00:06:59;98902.22;;;5.68;100.00
12801;BME280;6464;42.494;27.470;2023-11-21T00:09:26;98892.69;;;5.99;100.00
12801;BME280;6464;42.494;27.470;2023-11-21T00:11:55;98885.75;;;5.65;100.00
12801;BME280;6464;42.494;27.470;2023-11-21T00:14:22;98898.75;;;6.01;100.00
12801;BME280;6464;42.494;27.470;2023-11-21T00:16:49;98893.16;;;5.82;100.00
12801;BME280;6464;42.494;27.470;2023-11-21T00:19:17;98950.41;;;6.53;100.00
12801;BME280;6464;42.494;27.470;2023-11-21T00:21:44;98908.50;;;6.24;100.00
12801;BME280;6464;42.494;27.470;2023-11-21T00:24:12;98875.63;;;5.85;100.00
12801;BME280;6464;42.494;27.470;2023-11-21T00:26:40;98852.34;;;5.76;100.00
12801;BME280;6464;42.494;27.470;2023-11-21T00:29:08;99022.38;;;6.40;100.00
12801;BME280;6464;42.494;27.470;2023-11-21T00:31:36;98903.09;;;5.69;100.00
12801;BME280;6464;42.494;27.470;2023-11-21T00:34:04;98948.28;;;5.74;100.00
12801;BME280;6464;42.494;27.470;2023-11-21T00:36:32;99068.50;;;6.44;100.00
12801;BME280;6464;42.494;27.470;2023-11-21T00:38:59;98869.03;;;5.39;100.00
12801;BME280;6464;42.494;27.470;2023-11-21T00:41:27;99041.50;;;6.11;100.00
12801;BME280;6464;42.494;27.470;2023-11-21T00:43:54;98992.22;;;5.94;100.00
12801;BME280;6464;42.494;27.470;2023-11-21T00:46:23;98916.03;;;5.41;100.00
12801;BME280;6464;42.494;27.470;2023-11-21T00:48:52;98993.22;;;5.88;100.00
12801;BME280;6464;42.494;27.470;2023-11-21T00:51:20;99040.78;;;6.06;100.00
12801;BME280;6464;42.494;27.470;2023-11-21T00:53:47;98999.50;;;5.83;100.00
12801;BME280;6464;42.494;27.470;2023-11-21T00:56:14;98966.88;;;5.63;100.00
12801;BME280;6464;42.494;27.470;2023-11-21T00:58:41;98979.47;;;5.13;100.00
12801;BME280;6464;42.494;27.470;2023-11-21T04:01:22;99397.47;;;5.18;100.00
12801;BME280;6464;42.494;27.470;2023-11-21T04:03:50;99231.53;;;3.97;100.00
12801;BME280;6464;42.494;27.470;2023-11-21T04:06:17;99219.03;;;3.60;100.00
12801;BME280;6464;42.494;27.470;2023-11-21T04:08:45;99232.00;;;3.65;100.00
12801;BME280;6464;42.494;27.470;2023-11-21T04:11:12;99386.78;;;4.81;100.00
12801;BME280;6464;42.494;27.470;2023-11-21T04:13:41;99282.38;;;4.25;100.00
12801;BME280;6464;42.494;27.470;2023-11-21T04:16:09;99358.94;;;4.78;100.00
12801;BME280;6464;42.494;27.470;2023-11-21T04:18:37;99248.00;;;3.99;100.00
12801;BME280;6464;42.494;27.470;2023-11-21T04:21:05;99304.44;;;4.60;100.00
12801;BME280;6464;42.494;27.470;2023-11-21T04:23:33;99220.16;;;4.01;100.00
12801;BME280;6464;42.494;27.470;2023-11-21T04:26:00;99122.06;;;3.38;100.00
12801;BME280;6464;42.494;27.470;2023-11-21T04:28:28;99061.25;;;3.90;100.00
12801;BME280;6464;42.494;27.470;2023-11-21T04:30:56;99134.31;;;3.89;100.00
12801;BME280;6464;42.494;27.470;2023-11-21T04:33:23;99160.91;;;4.09;100.00
12801;BME280;6464;42.494;27.470;2023-11-21T04:35:52;99222.13;;;4.41;100.00
12801;BME280;6464;42.494;27.470;2023-11-21T04:38:19;99135.59;;;3.61;100.00
12801;BME280;6464;42.494;27.470;2023-11-21T04:40:46;99218.47;;;4.51;100.00
12801;BME280;6464;42.494;27.470;2023-11-21T04:43:14;99243.09;;;4.82;100.00
12801;BME280;6464;42.494;27.470;2023-11-21T04:45:42;99150.25;;;4.21;100.00
12801;BME280;6464;42.494;27.470;2023-11-21T04:48:10;99217.59;;;4.49;100.00
12801;BME280;6464;42.494;27.470;2023-11-21T04:50:37;99270.59;;;4.54;100.00
12801;BME280;6464;42.494;27.470;2023-11-21T04:53:08;99156.06;;;3.88;100.00
12801;BME280;6464;42.494;27.470;2023-11-21T04:55:38;99212.31;;;4.53;100.00
12801;BME280;6464;42.494;27.470;2023-11-21T04:58:05;99099.00;;;3.69;100.00
12801;BME280;6464;42.494;27.470;2023-11-21T05:00:33;99305.41;;;5.04;100.00
12801;BME280;6464;42.494;27.470;2023-11-21T05:03:02;99031.25;;;3.66;100.00
12801;BME280;6464;42.494;27.470;2023-11-21T05:05:30;99246.66;;;4.78;100.00
12801;BME280;6464;42.494;27.470;2023-11-21T05:07:58;99232.47;;;4.92;100.00
12801;BME280;6464;42.494;27.470;2023-11-21T05:10:26;99083.38;;;4.16;100.00
12801;BME280;6464;42.494;27.470;2023-11-21T05:12:54;99057.16;;;3.75;100.00
12801;BME280;6464;42.494;27.470;2023-11-21T05:15:22;99060.56;;;3.80;100.00
12801;BME280;6464;42.494;27.470;2023-11-21T05:17:49;99033.91;;;3.65;100.00
12801;BME280;6464;42.494;27.470;2023-11-21T05:20:17;99049.84;;;3.97;100.00
12801;BME280;6464;42.494;27.470;2023-11-21T05:22:46;99211.41;;;5.01;100.00
12801;BME280;6464;42.494;27.470;2023-11-21T05:25:14;99190.56;;;4.98;100.00
12801;BME280;6464;42.494;27.470;2023-11-21T05:27:43;99151.97;;;4.69;100.00
12801;BME280;6464;42.494;27.470;2023-11-21T05:30:11;99171.00;;;4.75;100.00
12801;BME280;6464;42.494;27.470;2023-11-21T05:32:38;99116.97;;;4.77;100.00
12801;BME280;6464;42.494;27.470;2023-11-21T05:35:06;99017.06;;;3.82;100.00
12801;BME280;6464;42.494;27.470;2023-11-21T05:37:37;99028.59;;;4.17;100.00
12801;BME280;6464;42.494;27.470;2023-11-21T05:40:06;99117.47;;;4.53;100.00
12801;BME280;6464;42.494;27.470;2023-11-21T05:42:33;99222.47;;;5.13;100.00
12801;BME280;6464;42.494;27.470;2023-11-21T05:45:02;99134.59;;;4.68;100.00
12801;BME280;6464;42.494;27.470;2023-11-21T05:47:36;99083.25;;;4.23;100.00
12801;BME280;6464;42.494;27.470;2023-11-21T05:50:04;99219.19;;;5.04;100.00
12801;BME280;6464;42.494;27.470;2023-11-21T05:52:35;99173.66;;;4.72;100.00
12801;BME280;6464;42.494;27.470;2023-11-21T05:55:03;99065.81;;;3.79;100.00
12801;BME280;6464;42.494;27.470;2023-11-21T05:57:32;99033.38;;;3.94;100.00
12801;BME280;6464;42.494;27.470;2023-11-21T06:00:04;99110.22;;;4.22;100.00
12801;BME280;6464;42.494;27.470;2023-11-21T06:02:37;99176.69;;;4.49;100.00
12801;BME280;6464;42.494;27.470;2023-11-21T06:05:05;99066.53;;;3.85;100.00
12801;BME280;6464;42.494;27.470;2023-11-21T06:07:33;99056.50;;;4.10;100.00
12801;BME280;6464;42.494;27.470;2023-11-21T06:10:01;99233.97;;;5.05;100.00
12801;BME280;6464;42.494;27.470;2023-11-21T06:12:31;99077.09;;;4.27;100.00
12801;BME280;6464;42.494;27.470;2023-11-21T06:15:03;99228.88;;;5.40;100.00
12801;BME280;6464;42.494;27.470;2023-11-21T06:17:31;99202.84;;;4.94;100.00
12801;BME280;6464;42.494;27.470;2023-11-21T06:19:59;99297.66;;;5.86;100.00
12801;BME280;6464;42.494;27.470;2023-11-21T06:22:29;99233.41;;;5.32;100.00
12801;BME280;6464;42.494;27.470;2023-11-21T06:24:57;99210.88;;;4.83;100.00
12801;BME280;6464;42.494;27.470;2023-11-21T06:27:24;99201.38;;;4.79;100.00
12801;BME280;6464;42.494;27.470;2023-11-21T06:29:51;99383.22;;;5.81;100.00
12801;BME280;6464;42.494;27.470;2023-11-21T06:32:20;99376.50;;;6.11;100.00
12801;BME280;6464;42.494;27.470;2023-11-21T06:34:48;99242.56;;;5.10;100.00
12801;BME280;6464;42.494;27.470;2023-11-21T06:37:15;99331.91;;;5.74;100.00
12801;BME280;6464;42.494;27.470;2023-11-21T06:39:43;99380.13;;;6.04;100.00
12801;BME280;6464;42.494;27.470;2023-11-21T06:42:10;99269.25;;;5.27;100.00
12801;BME280;6464;42.494;27.470;2023-11-21T06:44:37;99455.81;;;6.55;100.00
12801;BME280;6464;42.494;27.470;2023-11-21T06:47:05;99343.16;;;5.77;100.00
12801;BME280;6464;42.494;27.470;2023-11-21T06:49:34;99456.59;;;6.20;100.00
12801;BME280;6464;42.494;27.470;2023-11-21T06:52:02;99473.00;;;6.68;100.00
12801;BME280;6464;42.494;27.470;2023-11-21T06:54:31;99494.72;;;6.73;100.00
12801;BME280;6464;42.494;27.470;2023-11-21T06:56:58;99532.88;;;7.22;100.00
12801;BME280;6464;42.494;27.470;2023-11-21T06:59:25;99444.16;;;6.29;100.00
12801;BME280;6464;42.494;27.470;2023-11-21T07:01:52;99466.25;;;6.58;100.00
12801;BME280;6464;42.494;27.470;2023-11-21T07:04:19;99416.03;;;5.97;100.00
12801;BME280;6464;42.494;27.470;2023-11-21T07:06:48;99572.81;;;7.33;100.00
12801;BME280;6464;42.494;27.470;2023-11-21T07:09:15;99538.84;;;7.29;100.00
12801;BME280;6464;42.494;27.470;2023-11-21T07:11:42;99384.50;;;6.43;100.00
12801;BME280;6464;42.494;27.470;2023-11-21T07:14:10;99565.53;;;7.46;100.00
12801;BME280;6464;42.494;27.470;2023-11-21T07:16:38;99480.84;;;7.05;100.00
12801;BME280;6464;42.494;27.470;2023-11-21T07:19:06;99485.47;;;7.31;100.00
12801;BME280;6464;42.494;27.470;2023-11-21T07:21:35;99582.97;;;8.51;100.00
12801;BME280;6464;42.494;27.470;2023-11-21T07:24:05;99710.25;;;9.05;100.00
12801;BME280;6464;42.494;27.470;2023-11-21T07:26:33;99769.16;;;8.97;100.00
12801;BME280;6464;42.494;27.470;2023-11-21T07:29:01;99786.25;;;8.81;100.00
12801;BME280;6464;42.494;27.470;2023-11-21T07:31:29;99595.25;;;7.46;100.00
12801;BME280;6464;42.494;27.470;2023-11-21T07:33:57;99583.63;;;7.21;100.00
12801;BME280;6464;42.494;27.470;2023-11-21T07:36:25;99625.25;;;8.06;100.00
12801;BME280;6464;42.494;27.470;2023-11-21T07:38:53;99688.75;;;8.58;100.00
12801;BME280;6464;42.494;27.470;2023-11-21T07:41:22;99662.47;;;8.23;100.00
12801;BME280;6464;42.494;27.470;2023-11-21T07:43:49;99675.78;;;8.52;100.00
12801;BME280;6464;42.494;27.470;2023-11-21T07:46:17;99605.78;;;8.15;100.00
12801;BME280;6464;42.494;27.470;2023-11-21T07:48:45;99782.25;;;8.99;100.00
12801;BME280;6464;42.494;27.470;2023-11-21T07:51:13;99714.72;;;8.68;100.00
12801;BME280;6464;42.494;27.470;2023-11-21T07:53:40;99623.13;;;8.22;100.00
12801;BME280;6464;42.494;27.470;2023-11-21T07:56:08;99708.50;;;9.04;100.00
12801;BME280;6464;42.494;27.470;2023-11-21T07:58:37;99774.50;;;9.57;100.00
12801;BME280;6464;42.494;27.470;2023-11-21T08:01:05;99747.75;;;8.79;100.00
12801;BME280;6464;42.494;27.470;2023-11-21T08:03:50;99816.81;;;9.18;100.00
12801;BME280;6464;42.494;27.470;2023-11-21T08:06:20;99827.06;;;8.62;100.00
12801;BME280;6464;42.494;27.470;2023-11-21T08:09:28;99777.50;;;8.46;100.00
12801;BME280;6464;42.494;27.470;2023-11-21T08:12:21;99967.38;;;9.62;100.00
12801;BME280;6464;42.494;27.470;2023-11-21T08:14:57;99904.00;;;9.37;100.00
12801;BME280;6464;42.494;27.470;2023-11-21T08:17:46;99855.91;;;9.32;100.00
12801;BME280;6464;42.494;27.470;2023-11-21T08:23:09;99817.91;;;9.11;100.00
12801;BME280;6464;42.494;27.470;2023-11-21T08:31:00;99818.94;;;10.53;100.00
12801;BME280;6464;42.494;27.470;2023-11-21T08:33:35;99806.28;;;10.38;100.00
12801;BME280;6464;42.494;27.470;2023-11-21T08:36:09;99842.09;;;9.86;100.00
12801;BME280;6464;42.494;27.470;2023-11-21T09:06:24;100420.94;;;15.98;100.00
12801;BME280;6464;42.494;27.470;2023-11-21T09:09:20;101076.78;;;16.79;100.00
12801;BME280;6464;42.494;27.470;2023-11-21T09:11:54;101385.34;;;19.99;100.00
12801;BME280;6464;42.494;27.470;2023-11-21T09:14:28;101453.84;;;20.24;100.00
12801;BME280;6464;42.494;27.470;2023-11-21T09:16:56;101599.41;;;22.42;100.00
12801;BME280;6464;42.494;27.470;2023-11-21T09:19:23;101712.59;;;22.70;100.00
12801;BME280;6464;42.494;27.470;2023-11-21T09:21:52;101474.25;;;19.46;100.00
12801;BME280;6464;42.494;27.470;2023-11-21T09:24:19;101304.31;;;17.45;100.00
12801;BME280;6464;42.494;27.470;2023-11-21T09:26:46;101313.88;;;18.84;100.00
12801;BME280;6464;42.494;27.470;2023-11-21T09:29:14;101538.78;;;20.97;100.00
12801;BME280;6464;42.494;27.470;2023-11-21T09:31:44;101542.22;;;21.18;100.00
12801;BME280;6464;42.494;27.470;2023-11-21T09:34:14;101608.22;;;21.03;100.00
12801;BME280;6464;42.494;27.470;2023-11-21T09:36:45;101562.19;;;21.49;100.00
12801;BME280;6464;42.494;27.470;2023-11-21T09:39:13;101671.28;;;22.71;100.00
12801;BME280;6464;42.494;27.470;2023-11-21T09:41:43;101628.75;;;23.11;100.00
12801;BME280;6464;42.494;27.470;2023-11-21T09:44:13;101743.22;;;23.50;100.00
12801;BME280;6464;42.494;27.470;2023-11-21T09:46:44;101521.69;;;20.81;100.00
12801;BME280;6464;42.494;27.470;2023-11-21T09:49:23;101564.84;;;21.84;100.00
12801;BME280;6464;42.494;27.470;2023-11-21T09:51:55;101348.16;;;18.08;100.00
12801;BME280;6464;42.494;27.470;2023-11-21T09:54:30;101382.84;;;19.77;100.00
12801;BME280;6464;42.494;27.470;2023-11-21T09:57:05;101386.13;;;20.58;100.00
12801;BME280;6464;42.494;27.470;2023-11-21T09:59:35;101615.69;;;22.72;100.00
12801;BME280;6464;42.494;27.470;2023-11-21T10:02:04;101617.28;;;23.55;100.00
12801;BME280;6464;42.494;27.470;2023-11-21T10:04:31;101726.59;;;24.79;100.00
12801;BME280;6464;42.494;27.470;2023-11-21T10:06:58;101755.47;;;26.04;100.00
12801;BME280;6464;42.494;27.470;2023-11-21T10:09:27;101761.69;;;25.51;100.00
12801;BME280;6464;42.494;27.470;2023-11-21T10:11:58;101530.88;;;22.00;100.00
12801;BME280;6464;42.494;27.470;2023-11-21T10:14:29;101561.06;;;22.87;100.00
12801;BME280;6464;42.494;27.470;2023-11-21T10:16:56;101482.75;;;21.27;100.00
12801;BME280;6464;42.494;27.470;2023-11-21T10:19:25;101494.84;;;21.53;100.00
12801;BME280;6464;42.494;27.470;2023-11-21T10:21:57;101520.94;;;22.02;100.00
12801;BME280;6464;42.494;27.470;2023-11-21T10:24:27;101587.59;;;23.25;100.00
12801;BME280;6464;42.494;27.470;2023-11-21T10:26:54;101675.19;;;23.94;100.00
12801;BME280;6464;42.494;27.470;2023-11-21T10:29:21;101573.13;;;22.31;100.00
12801;BME280;6464;42.494;27.470;2023-11-21T10:31:49;101505.94;;;20.92;100.00
12801;BME280;6464;42.494;27.470;2023-11-21T10:34:17;101437.56;;;21.70;100.00
12801;BME280;6464;42.494;27.470;2023-11-21T10:36:45;101646.53;;;24.66;100.00
12801;BME280;6464;42.494;27.470;2023-11-21T10:39:14;101731.41;;;25.46;100.00
12801;BME280;6464;42.494;27.470;2023-11-21T10:41:46;101606.16;;;23.61;100.00
12801;BME280;6464;42.494;27.470;2023-11-21T10:44:14;101704.16;;;25.07;100.00
12801;BME280;6464;42.494;27.470;2023-11-21T10:46:46;101588.78;;;23.67;100.00
12801;BME280;6464;42.494;27.470;2023-11-21T10:49:16;101587.63;;;22.77;100.00
12801;BME280;6464;42.494;27.470;2023-11-21T10:51:44;101581.63;;;22.88;100.00
12801;BME280;6464;42.494;27.470;2023-11-21T10:54:17;101599.44;;;24.71;100.00
12801;BME280;6464;42.494;27.470;2023-11-21T10:56:46;101702.84;;;26.23;100.00
12801;BME280;6464;42.494;27.470;2023-11-21T10:59:17;101735.50;;;26.85;100.00
12801;BME280;6464;42.494;27.470;2023-11-21T11:01:45;101744.69;;;27.33;100.00
12801;BME280;6464;42.494;27.470;2023-11-21T11:04:14;101757.63;;;27.90;100.00
12801;BME280;6464;42.494;27.470;2023-11-21T11:06:43;101777.75;;;29.05;100.00
12801;BME280;6464;42.494;27.470;2023-11-21T11:09:13;101810.88;;;31.15;100.00
12801;BME280;6464;42.494;27.470;2023-11-21T11:11:42;101817.41;;;30.82;100.00
12801;BME280;6464;42.494;27.470;2023-11-21T11:14:12;101756.41;;;29.56;100.00
12801;BME280;6464;42.494;27.470;2023-11-21T11:16:40;101754.28;;;29.15;100.00
12801;BME280;6464;42.494;27.470;2023-11-21T11:19:08;101736.66;;;28.40;100.00
12801;BME280;6464;42.494;27.470;2023-11-21T11:21:45;101731.09;;;29.00;100.00
12801;BME280;6464;42.494;27.470;2023-11-21T11:24:34;101764.06;;;30.38;100.00
12801;BME280;6464;42.494;27.470;2023-11-21T11:27:11;101805.47;;;32.44;100.00
12801;BME280;6464;42.494;27.470;2023-11-21T11:29:56;101764.38;;;32.56;100.00
12801;BME280;6464;42.494;27.470;2023-11-21T11:32:36;101810.81;;;33.59;100.00
12801;BME280;6464;42.494;27.470;2023-11-21T11:35:11;101825.00;;;34.18;100.00
12801;BME280;6464;42.494;27.470;2023-11-21T11:37:42;101757.41;;;33.28;100.00
12801;BME280;6464;42.494;27.470;2023-11-21T11:40:11;101771.16;;;33.45;100.00
12801;BME280;6464;42.494;27.470;2023-11-21T11:42:38;101770.44;;;32.11;100.00
12801;BME280;6464;42.494;27.470;2023-11-21T11:45:18;101665.28;;;32.07;100.00
12801;BME280;6464;42.494;27.470;2023-11-21T11:47:47;101682.09;;;29.01;100.00
12801;BME280;6464;42.494;27.470;2023-11-21T11:50:14;101688.91;;;30.26;100.00
12801;BME280;6464;42.494;27.470;2023-11-21T11:52:43;101698.72;;;30.59;100.00
12801;BME280;6464;42.494;27.470;2023-11-21T11:55:11;101571.56;;;24.71;100.00
12801;BME280;6464;42.494;27.470;2023-11-21T11:57:40;101385.56;;;21.55;100.00
12801;BME280;6464;42.494;27.470;2023-11-21T12:00:12;101288.47;;;19.91;100.00
12801;BME280;6464;42.494;27.470;2023-11-21T12:08:04;101130.94;;;19.84;100.00
12801;BME280;6464;42.494;27.470;2023-11-21T12:10:53;101123.91;;;19.64;100.00
12801;BME280;6464;42.494;27.470;2023-11-21T12:16:11;101202.31;;;20.54;100.00
12801;BME280;6464;42.494;27.470;2023-11-21T12:18:39;101252.75;;;20.63;100.00
12801;BME280;6464;42.494;27.470;2023-11-21T12:21:06;101172.19;;;20.14;100.00
12801;BME280;6464;42.494;27.470;2023-11-21T12:23:39;101128.63;;;19.76;100.00
12801;BME280;6464;42.494;27.470;2023-11-21T12:26:06;101171.41;;;20.64;100.00
12801;BME280;6464;42.494;27.470;2023-11-21T12:28:34;101206.88;;;20.69;100.00
12801;BME280;6464;42.494;27.470;2023-11-21T12:31:05;101274.84;;;21.52;100.00
12801;BME280;6464;42.494;27.470;2023-11-21T12:33:33;101322.31;;;21.99;100.00
12801;BME280;6464;42.494;27.470;2023-11-21T12:36:00;101330.88;;;22.53;100.00
12801;BME280;6464;42.494;27.470;2023-11-21T12:38:33;101466.81;;;24.50;100.00
12801;BME280;6464;42.494;27.470;2023-11-21T12:41:02;101549.25;;;26.15;100.00
12801;BME280;6464;42.494;27.470;2023-11-21T12:43:29;101557.16;;;26.18;100.00
12801;BME280;6464;42.494;27.470;2023-11-21T12:46:04;101506.53;;;25.69;100.00
12801;BME280;6464;42.494;27.470;2023-11-21T12:48:32;101487.81;;;26.30;100.00
12801;BME280;6464;42.494;27.470;2023-11-21T12:50:59;101559.91;;;26.80;100.00
12801;BME280;6464;42.494;27.470;2023-11-21T12:53:28;101577.13;;;27.16;100.00
12801;BME280;6464;42.494;27.470;2023-11-21T12:56:06;101576.06;;;27.06;100.00
12801;BME280;6464;42.494;27.470;2023-11-21T12:58:34;101539.47;;;27.13;100.00
12801;BME280;6464;42.494;27.470;2023-11-21T13:01:01;101540.28;;;26.14;100.00
12801;BME280;6464;42.494;27.470;2023-11-21T13:03:30;101478.38;;;24.79;100.00
12801;BME280;6464;42.494;27.470;2023-11-21T13:05:58;101434.28;;;24.93;100.00
12801;BME280;6464;42.494;27.470;2023-11-21T13:08:26;101505.91;;;25.78;100.00
12801;BME280;6464;42.494;27.470;2023-11-21T13:10:56;101519.63;;;26.26;100.00
12801;BME280;6464;42.494;27.470;2023-11-21T13:13:25;101527.28;;;25.69;100.00
12801;BME280;6464;42.494;27.470;2023-11-21T13:15:55;101432.31;;;23.71;100.00
12801;BME280;6464;42.494;27.470;2023-11-21T13:18:23;101273.72;;;21.88;100.00
12801;BME280;6464;42.494;27.470;2023-11-21T13:20:52;101255.63;;;21.26;100.00
12801;BME280;6464;42.494;27.470;2023-11-21T13:23:20;101232.88;;;21.18;100.00
12801;BME280;6464;42.494;27.470;2023-11-21T13:25:51;101123.41;;;19.37;100.00
12801;BME280;6464;42.494;27.470;2023-11-21T20:41:17;98417.72;;;10.19;100.00
12801;BME280;6464;42.494;27.470;2023-11-21T20:44:49;98499.06;;;10.25;100.00
12801;BME280;6464;42.494;27.470;2023-11-21T20:47:42;98646.69;;;11.40;100.00
12801;BME280;6464;42.494;27.470;2023-11-21T20:50:14;98655.28;;;11.44;100.00
12801;BME280;6464;42.494;27.470;2023-11-21T20:52:57;98586.72;;;10.95;100.00
12801;BME280;6464;42.494;27.470;2023-11-21T21:07:42;98625.22;;;11.15;100.00
12801;BME280;6464;42.494;27.470;2023-11-21T21:21:03;98746.97;;;10.90;100.00
12801;BME280;6464;42.494;27.470;2023-11-21T21:26:35;98811.56;;;10.81;100.00
12801;BME280;6464;42.494;27.470;2023-11-21T21:29:19;98932.91;;;11.16;100.00
12801;BME280;6464;42.494;27.470;2023-11-21T21:34:45;98874.25;;;10.93;100.00
12801;BME280;6464;42.494;27.470;2023-11-21T21:40:10;98825.63;;;10.45;100.00
12801;BME280;6464;42.494;27.470;2023-11-21T21:52:06;98779.75;;;10.67;100.00
12801;BME280;6464;42.494;27.470;2023-11-21T23:13:30;98735.63;;;10.36;100.00
12801;BME280;6464;42.494;27.470;2023-11-21T23:16:27;98782.72;;;10.61;100.00
12801;BME280;6464;42.494;27.470;2023-11-21T23:19:12;98767.22;;;10.89;100.00
12801;BME280;6464;42.494;27.470;2023-11-21T23:42:26;98811.63;;;10.62;100.00
